Time;durP1;ratioP1;P1;durP2;ratioP2;P2;SDS_P1;SDS_P2;PMS_P1;PMS_P2;Temp;Humidity;BMP_temperature;BMP_pressure;BME280_temperature;BME280_humidity;BME280_pressure;Samples;Min_cycle;Max_cycle;Signal;HPM_P1;HPM_P2
2022/07/30 00:01:59;;;;;;;8.40;7.60;;;18.00;99.90;;;;;;6129164;23;20654;-72
2022/07/30 00:04:25;;;;;;;9.80;9.07;;;18.10;99.90;;;;;;6156230;23;20173;-72
2022/07/30 00:06:50;;;;;;;8.43;7.63;;;18.20;99.90;;;;;;6156116;23;20153;-75
2022/07/30 00:09:16;;;;;;;8.48;7.72;;;18.20;99.90;;;;;;6154911;23;20153;-76
2022/07/30 00:11:42;;;;;;;6.72;6.22;;;18.20;99.90;;;;;;6155820;23;20204;-74
2022/07/30 00:14:08;;;;;;;6.13;5.78;;;18.10;99.90;;;;;;6155157;23;20175;-74
2022/07/30 00:16:34;;;;;;;6.93;6.38;;;18.20;99.90;;;;;;6155391;23;20177;-74
2022/07/30 00:19:00;;;;;;;7.40;6.90;;;18.20;99.90;;;;;;6128319;23;20619;-74
2022/07/30 00:21:26;;;;;;;9.52;8.73;;;18.20;99.90;;;;;;6156986;23;20602;-76
2022/07/30 00:23:51;;;;;;;10.00;9.20;;;18.20;99.90;;;;;;6157917;23;20169;-76
2022/07/30 00:26:17;;;;;;;10.20;9.40;;;18.20;99.90;;;;;;6131435;23;20153;-74
2022/07/30 00:28:42;;;;;;;12.95;11.75;;;18.30;99.90;;;;;;6154654;23;20180;-74
2022/07/30 00:31:08;;;;;;;13.00;11.80;;;18.40;99.90;;;;;;6155275;23;20169;-75
2022/07/30 00:33:33;;;;;;;13.48;12.38;;;18.40;99.90;;;;;;6129158;23;20657;-74
2022/07/30 00:35:59;;;;;;;13.95;12.75;;;18.40;99.90;;;;;;6128545;23;20153;-74
2022/07/30 00:38:25;;;;;;;14.05;12.77;;;18.50;99.90;;;;;;6154905;23;20602;-74
2022/07/30 00:40:51;;;;;;;14.48;13.23;;;18.40;99.90;;;;;;6154547;23;20145;-74
2022/07/30 00:43:17;;;;;;;14.13;12.93;;;18.40;99.90;;;;;;6154782;23;20209;-73
2022/07/30 00:45:46;;;;;;;15.05;13.73;;;18.50;99.90;;;;;;6154134;23;20158;-76
2022/07/30 00:48:13;;;;;;;14.02;12.93;;;18.50;99.90;;;;;;6155027;23;20184;-73
2022/07/30 00:50:39;;;;;;;14.00;12.80;;;18.50;99.90;;;;;;6154737;23;20667;-73
2022/07/30 00:53:06;;;;;;;14.07;12.88;;;18.50;99.90;;;;;;6154513;23;20180;-73
2022/07/30 00:55:32;;;;;;;13.27;12.18;;;18.60;99.90;;;;;;6155033;23;20150;-73
2022/07/30 00:57:58;;;;;;;15.25;14.02;;;18.50;99.90;;;;;;6154798;23;20168;-73
2022/07/30 01:00:24;;;;;;;12.75;11.68;;;18.60;99.90;;;;;;6154771;23;20181;-74
2022/07/30 01:02:50;;;;;;;15.27;13.98;;;18.50;99.90;;;;;;6154407;23;20559;-73
2022/07/30 01:05:15;;;;;;;16.48;14.95;;;18.60;99.90;;;;;;6154948;23;20149;-73
2022/07/30 01:07:42;;;;;;;17.02;15.63;;;18.60;99.90;;;;;;6155381;23;20597;-73
2022/07/30 01:10:09;;;;;;;15.95;14.55;;;18.70;99.90;;;;;;6154358;23;20155;-74
2022/07/30 01:12:36;;;;;;;14.30;13.20;;;18.70;99.90;;;;;;6154367;23;20168;-73
2022/07/30 01:15:05;;;;;;;14.00;12.85;;;18.70;99.90;;;;;;6154990;23;20602;-73
2022/07/30 01:17:31;;;;;;;14.27;12.85;;;18.50;99.90;;;;;;6154774;23;20189;-73
2022/07/30 01:20:02;;;;;;;12.82;11.80;;;18.50;99.90;;;;;;6153905;23;20154;-72
2022/07/30 01:22:32;;;;;;;13.35;12.25;;;18.50;99.90;;;;;;6128218;23;20700;-73
2022/07/30 01:25:03;;;;;;;14.48;13.25;;;18.60;99.90;;;;;;6155000;23;20146;-74
2022/07/30 01:27:32;;;;;;;14.95;13.75;;;18.60;99.90;;;;;;6154505;23;20134;-73
2022/07/30 01:30:00;;;;;;;14.82;13.63;;;18.60;99.90;;;;;;6154212;23;20169;-73
2022/07/30 01:32:26;;;;;;;14.13;13.02;;;18.60;99.90;;;;;;6154392;23;20224;-73
2022/07/30 01:34:56;;;;;;;13.98;12.90;;;18.60;99.90;;;;;;6154350;23;20599;-74
2022/07/30 01:37:23;;;;;;;15.63;14.32;;;18.70;99.90;;;;;;6154066;23;20154;-73
2022/07/30 01:39:49;;;;;;;13.25;12.20;;;18.60;99.90;;;;;;6154696;23;20154;-74
2022/07/30 01:42:18;;;;;;;14.27;13.27;;;18.50;99.90;;;;;;6154339;23;20181;-74
2022/07/30 01:44:45;;;;;;;12.95;11.85;;;18.60;99.90;;;;;;6154280;23;20204;-72
2022/07/30 01:47:13;;;;;;;13.82;12.73;;;18.60;99.90;;;;;;6154149;23;20166;-73
2022/07/30 01:49:40;;;;;;;10.77;9.88;;;18.60;99.90;;;;;;6128235;23;20177;-73
2022/07/30 01:52:08;;;;;;;12.02;11.13;;;18.60;99.90;;;;;;6154752;23;20488;-73
2022/07/30 01:54:36;;;;;;;12.63;11.63;;;18.60;99.90;;;;;;6154326;23;20149;-73
2022/07/30 01:57:04;;;;;;;13.40;12.30;;;18.60;99.90;;;;;;6154660;23;20236;-73
2022/07/30 01:59:33;;;;;;;13.95;12.88;;;18.60;99.90;;;;;;6155803;23;20183;-73
2022/07/30 02:01:59;;;;;;;13.40;12.30;;;18.60;99.90;;;;;;6156460;23;20180;-74
2022/07/30 02:04:26;;;;;;;11.82;10.93;;;18.60;99.90;;;;;;6156625;23;20165;-73
2022/07/30 02:07:31;;;;;;;12.57;11.60;;;18.60;99.90;;;;;;6156863;23;20145;-73
2022/07/30 02:10:12;;;;;;;12.23;11.13;;;18.60;99.90;;;;;;6155713;23;20141;-73
2022/07/30 02:12:44;;;;;;;11.55;10.65;;;18.50;99.90;;;;;;6156362;23;20173;-73
2022/07/30 02:15:23;;;;;;;12.40;11.30;;;18.50;99.90;;;;;;6156550;23;20458;-73
2022/07/30 02:17:54;;;;;;;11.93;10.82;;;18.50;99.90;;;;;;6156481;23;20152;-73
2022/07/30 02:20:22;;;;;;;12.35;11.25;;;18.40;99.90;;;;;;6155965;23;20138;-72
2022/07/30 02:22:48;;;;;;;11.60;10.65;;;18.50;99.90;;;;;;6156388;23;20638;-73
2022/07/30 02:25:19;;;;;;;12.00;10.93;;;18.40;99.90;;;;;;6156364;23;20145;-72
2022/07/30 02:27:48;;;;;;;12.23;11.13;;;18.40;99.90;;;;;;6156204;23;20161;-72
2022/07/30 02:30:14;;;;;;;11.32;10.48;;;18.40;99.90;;;;;;6156320;23;20173;-72
2022/07/30 02:32:42;;;;;;;10.80;9.90;;;18.40;99.90;;;;;;6156484;23;20226;-73
2022/07/30 02:35:16;;;;;;;11.63;10.73;;;18.40;99.90;;;;;;6156116;23;20490;-73
2022/07/30 02:37:43;;;;;;;12.00;10.90;;;18.40;99.90;;;;;;6156427;23;20161;-73
2022/07/30 02:40:12;;;;;;;10.25;9.50;;;18.40;99.90;;;;;;6156051;23;20168;-73
2022/07/30 02:42:38;;;;;;;11.43;10.50;;;18.40;99.90;;;;;;6156586;23;20263;-73
2022/07/30 02:45:05;;;;;;;11.13;10.23;;;18.40;99.90;;;;;;6155878;23;20146;-73
2022/07/30 02:47:31;;;;;;;9.82;8.85;;;18.40;99.90;;;;;;6130076;23;20240;-73
2022/07/30 02:49:59;;;;;;;10.05;9.07;;;18.40;99.90;;;;;;6155600;23;20153;-72
2022/07/30 02:52:27;;;;;;;10.75;9.82;;;18.50;99.90;;;;;;6156166;23;20243;-73
2022/07/30 02:54:56;;;;;;;10.77;9.88;;;18.40;99.90;;;;;;6156195;23;20595;-72
2022/07/30 02:57:22;;;;;;;10.18;9.15;;;18.40;99.90;;;;;;6155574;23;20185;-72
2022/07/30 02:59:49;;;;;;;10.77;9.88;;;18.20;99.90;;;;;;6155621;23;20146;-73
2022/07/30 03:02:16;;;;;;;10.48;9.68;;;18.20;99.90;;;;;;6155893;23;20185;-72
2022/07/30 03:04:42;;;;;;;10.80;9.98;;;18.10;99.90;;;;;;6155587;23;20204;-72
2022/07/30 03:07:10;;;;;;;10.88;10.02;;;18.00;99.90;;;;;;6154028;23;20459;-72
2022/07/30 03:09:40;;;;;;;11.13;10.23;;;17.90;99.90;;;;;;6155752;23;20489;-72
2022/07/30 03:12:07;;;;;;;10.73;9.80;;;17.90;99.90;;;;;;6155668;23;20623;-74
2022/07/30 03:14:33;;;;;;;10.55;9.65;;;17.80;99.90;;;;;;6156043;23;20157;-74
2022/07/30 03:17:01;;;;;;;11.77;10.77;;;17.70;99.90;;;;;;6156401;23;20240;-74
2022/07/30 03:19:31;;;;;;;11.25;10.35;;;17.70;99.90;;;;;;6155227;23;20177;-74
2022/07/30 03:21:59;;;;;;;11.80;10.73;;;17.70;99.90;;;;;;6155784;23;20217;-72
2022/07/30 03:24:26;;;;;;;11.48;10.57;;;17.70;99.90;;;;;;6155824;23;20174;-71
2022/07/30 03:26:54;;;;;;;12.02;11.02;;;17.60;99.90;;;;;;6156236;23;20582;-75
2022/07/30 03:29:23;;;;;;;12.07;10.90;;;17.50;99.90;;;;;;6156194;23;20145;-71
2022/07/30 03:31:49;;;;;;;10.57;9.68;;;17.50;99.90;;;;;;6156221;23;20157;-75
2022/07/30 03:34:16;;;;;;;13.32;11.35;;;17.40;99.90;;;;;;6155045;23;20642;-73
2022/07/30 03:36:42;;;;;;;11.15;10.05;;;17.40;99.90;;;;;;6155835;23;20594;-73
2022/07/30 03:39:08;;;;;;;12.13;11.13;;;17.40;99.90;;;;;;6155205;23;20232;-73
2022/07/30 03:41:36;;;;;;;11.75;10.43;;;17.40;99.90;;;;;;6155401;23;20173;-73
2022/07/30 03:44:02;;;;;;;12.57;11.50;;;17.30;99.90;;;;;;6155804;23;20181;-73
2022/07/30 03:46:28;;;;;;;12.85;11.60;;;17.30;99.90;;;;;;6155895;23;20210;-73
2022/07/30 03:48:55;;;;;;;12.27;11.15;;;17.30;99.90;;;;;;6155176;23;20141;-71
2022/07/30 03:51:21;;;;;;;12.65;11.48;;;17.30;99.90;;;;;;6155778;23;20146;-74
2022/07/30 03:53:47;;;;;;;12.68;11.55;;;17.30;99.90;;;;;;6155355;23;20183;-72
2022/07/30 03:56:14;;;;;;;12.85;11.75;;;17.30;99.90;;;;;;6155957;23;20173;-72
2022/07/30 03:58:39;;;;;;;10.93;9.93;;;17.30;99.90;;;;;;6155323;23;20165;-72
2022/07/30 04:01:05;;;;;;;12.05;10.95;;;17.30;99.90;;;;;;6156145;23;20466;-74
2022/07/30 04:03:32;;;;;;;12.77;11.60;;;17.40;99.90;;;;;;6155873;23;20556;-71
2022/07/30 04:05:58;;;;;;;13.10;12.00;;;17.40;99.90;;;;;;6156009;23;20157;-73
2022/07/30 04:08:24;;;;;;;10.75;9.70;;;17.50;99.90;;;;;;6155016;23;20484;-73
2022/07/30 04:10:50;;;;;;;12.48;11.40;;;17.40;99.90;;;;;;6155221;23;20599;-71
2022/07/30 04:13:16;;;;;;;12.52;11.43;;;17.40;99.90;;;;;;6155563;23;20173;-75
2022/07/30 04:16:06;;;;;;;13.35;12.18;;;17.40;99.90;;;;;;6129637;23;20157;-71
2022/07/30 04:18:37;;;;;;;13.20;12.00;;;17.40;99.90;;;;;;6129231;23;20145;-70
2022/07/30 04:21:06;;;;;;;13.13;11.98;;;17.40;99.90;;;;;;6155033;23;20148;-70
2022/07/30 04:23:32;;;;;;;12.55;11.35;;;17.40;99.90;;;;;;6153086;23;20685;-70
2022/07/30 04:26:00;;;;;;;13.18;11.98;;;17.30;99.90;;;;;;6154025;23;20138;-73
2022/07/30 04:28:27;;;;;;;13.93;12.73;;;17.30;99.90;;;;;;6153770;23;20591;-74
2022/07/30 04:30:53;;;;;;;13.60;12.40;;;17.20;99.90;;;;;;6154549;23;20156;-73
2022/07/30 04:33:19;;;;;;;13.77;12.43;;;17.20;99.90;;;;;;6131485;23;20208;-74
2022/07/30 04:35:45;;;;;;;13.63;12.43;;;17.20;99.90;;;;;;6141466;23;20145;-75
2022/07/30 04:38:15;;;;;;;12.63;11.63;;;17.20;99.90;;;;;;6146764;23;20618;-75
2022/07/30 04:40:40;;;;;;;13.23;12.07;;;17.20;99.90;;;;;;6105587;23;20168;-74
2022/07/30 04:43:06;;;;;;;12.98;11.77;;;17.20;99.90;;;;;;6154219;23;20181;-73
2022/07/30 04:45:32;;;;;;;12.35;11.15;;;17.20;99.90;;;;;;6154551;23;20224;-73
2022/07/30 04:47:58;;;;;;;13.10;11.90;;;17.10;99.90;;;;;;6154903;23;20188;-73
2022/07/30 04:50:27;;;;;;;12.93;11.73;;;17.10;99.90;;;;;;6154915;23;20149;-78
2022/07/30 04:52:55;;;;;;;12.80;11.77;;;17.10;99.90;;;;;;6155002;23;20177;-73
2022/07/30 04:55:22;;;;;;;12.80;11.48;;;17.20;99.90;;;;;;6154923;23;20588;-73
2022/07/30 04:57:50;;;;;;;12.77;11.57;;;17.20;99.90;;;;;;6154863;23;20508;-73
2022/07/30 05:00:16;;;;;;;12.90;11.82;;;17.30;99.90;;;;;;6154972;23;20157;-73
2022/07/30 05:02:43;;;;;;;12.27;11.27;;;17.30;99.90;;;;;;6154384;23;20203;-73
2022/07/30 05:05:11;;;;;;;11.55;10.50;;;17.40;99.90;;;;;;6154283;23;20637;-74
2022/07/30 05:07:38;;;;;;;11.68;10.75;;;17.50;99.90;;;;;;6154006;23;20154;-73
2022/07/30 05:10:05;;;;;;;12.20;11.02;;;17.60;99.90;;;;;;6153619;23;20264;-73
2022/07/30 05:12:37;;;;;;;11.95;10.85;;;17.60;99.90;;;;;;6152485;23;20251;-76
2022/07/30 05:15:07;;;;;;;12.38;11.18;;;17.70;99.90;;;;;;6154119;23;20144;-76
2022/07/30 05:17:34;;;;;;;13.35;12.15;;;17.70;99.90;;;;;;6154749;23;20228;-76
2022/07/30 05:19:59;;;;;;;12.18;11.02;;;17.80;99.90;;;;;;6153322;23;20165;-74
2022/07/30 05:22:28;;;;;;;12.75;11.32;;;17.80;99.90;;;;;;6154842;23;20185;-77
2022/07/30 05:24:55;;;;;;;11.27;10.38;;;17.90;99.90;;;;;;6155254;23;20614;-76
2022/07/30 05:27:21;;;;;;;9.73;8.90;;;18.00;99.90;;;;;;6153959;23;20153;-78
2022/07/30 05:29:46;;;;;;;12.02;10.93;;;18.10;99.90;;;;;;6153490;23;20149;-76
2022/07/30 05:32:12;;;;;;;11.40;10.43;;;18.30;99.90;;;;;;6157210;23;20167;-75
2022/07/30 05:34:38;;;;;;;10.45;9.50;;;18.30;99.90;;;;;;6135416;23;20579;-74
2022/07/30 05:37:04;;;;;;;10.05;9.25;;;18.40;99.90;;;;;;6159458;23;20665;-75
2022/07/30 05:39:29;;;;;;;9.52;8.50;;;18.40;99.90;;;;;;6160142;23;20165;-75
2022/07/30 05:41:55;;;;;;;11.07;10.07;;;18.40;99.90;;;;;;6158904;23;20196;-74
2022/07/30 05:44:21;;;;;;;11.05;10.05;;;18.30;99.90;;;;;;6133278;23;20173;-76
2022/07/30 05:46:46;;;;;;;10.35;8.98;;;18.30;99.90;;;;;;6157321;23;20146;-76
2022/07/30 05:49:12;;;;;;;9.82;8.95;;;18.30;99.90;;;;;;6157334;23;20675;-76
2022/07/30 05:51:38;;;;;;;9.38;8.60;;;18.40;99.90;;;;;;6158100;23;20161;-75
2022/07/30 05:54:04;;;;;;;10.32;9.32;;;18.50;99.90;;;;;;6160374;23;20606;-74
2022/07/30 05:56:29;;;;;;;8.15;7.45;;;18.60;99.90;;;;;;6160126;23;20150;-75
2022/07/30 05:58:55;;;;;;;9.15;8.45;;;18.80;99.90;;;;;;6159303;23;20215;-74
2022/07/30 06:01:20;;;;;;;9.52;8.77;;;18.90;99.90;;;;;;6134903;23;20157;-73
2022/07/30 06:03:46;;;;;;;9.27;8.57;;;18.90;99.90;;;;;;6156308;23;20564;-73
2022/07/30 06:06:12;;;;;;;8.70;7.95;;;19.10;99.90;;;;;;6157373;23;20153;-73
2022/07/30 06:08:37;;;;;;;9.50;8.70;;;19.20;99.90;;;;;;6156306;23;20228;-75
2022/07/30 06:11:03;;;;;;;8.82;8.23;;;19.20;99.90;;;;;;6157216;23;20146;-75
2022/07/30 06:13:29;;;;;;;10.18;9.30;;;19.20;99.90;;;;;;6156812;23;20169;-76
2022/07/30 06:15:54;;;;;;;8.95;8.00;;;19.30;99.90;;;;;;6158644;23;20204;-76
2022/07/30 06:18:20;;;;;;;9.15;8.45;;;19.40;99.90;;;;;;6158437;23;20142;-76
2022/07/30 06:20:48;;;;;;;8.48;7.78;;;19.40;99.90;;;;;;6132367;23;20157;-76
2022/07/30 06:23:14;;;;;;;8.82;8.13;;;19.50;99.90;;;;;;6158257;23;20212;-77
2022/07/30 06:25:39;;;;;;;8.48;7.57;;;19.70;99.90;;;;;;6157794;23;20145;-75
2022/07/30 06:28:05;;;;;;;7.47;6.90;;;19.90;99.90;;;;;;6157365;23;20173;-78
2022/07/30 06:30:31;;;;;;;8.02;7.20;;;20.10;99.90;;;;;;6130492;23;20283;-75
2022/07/30 06:32:56;;;;;;;8.50;7.70;;;20.20;99.90;;;;;;6130797;23;20188;-75
2022/07/30 06:35:22;;;;;;;7.18;6.57;;;20.30;99.90;;;;;;6156345;23;20558;-74
2022/07/30 06:37:47;;;;;;;7.03;6.50;;;20.30;99.90;;;;;;6156755;23;20150;-77
2022/07/30 06:40:13;;;;;;;6.72;6.13;;;20.40;99.90;;;;;;6156767;23;20153;-77
2022/07/30 06:42:39;;;;;;;6.78;6.18;;;20.40;99.90;;;;;;6156715;23;20264;-77
2022/07/30 06:45:05;;;;;;;7.03;6.43;;;20.50;99.90;;;;;;6156554;23;20228;-77
2022/07/30 06:47:33;;;;;;;5.90;5.50;;;20.60;99.90;;;;;;6156698;23;20149;-77
2022/07/30 06:50:00;;;;;;;6.03;5.63;;;20.70;99.90;;;;;;6129883;23;20153;-77
2022/07/30 06:52:26;;;;;;;6.18;5.68;;;20.90;99.90;;;;;;6155267;23;20173;-77
2022/07/30 06:54:52;;;;;;;6.57;6.18;;;21.00;99.90;;;;;;6129316;23;20479;-76
2022/07/30 06:57:17;;;;;;;6.10;5.60;;;21.10;99.90;;;;;;6155414;23;20149;-78
2022/07/30 06:59:43;;;;;;;5.95;5.55;;;21.40;99.90;;;;;;6155173;23;20145;-76
2022/07/30 07:02:09;;;;;;;5.00;4.68;;;21.70;99.90;;;;;;6128851;23;20189;-76
2022/07/30 07:04:35;;;;;;;5.85;5.45;;;22.00;99.90;;;;;;6154202;23;20669;-73
2022/07/30 07:07:01;;;;;;;5.38;4.97;;;22.30;99.90;;;;;;6129227;23;20617;-76
2022/07/30 07:09:26;;;;;;;5.03;4.72;;;22.70;99.90;;;;;;6153812;23;20240;-73
2022/07/30 07:11:52;;;;;;;4.88;4.50;;;22.90;99.90;;;;;;6154879;23;20192;-76
2022/07/30 07:14:17;;;;;;;6.78;6.28;;;23.00;99.90;;;;;;6154127;23;20506;-76
2022/07/30 07:16:43;;;;;;;7.43;6.90;;;23.10;99.90;;;;;;6154798;23;20153;-76
2022/07/30 07:19:09;;;;;;;7.68;7.18;;;23.20;99.90;;;;;;6152680;23;20154;-74
2022/07/30 07:21:34;;;;;;;7.57;6.97;;;23.30;99.90;;;;;;6151881;23;20154;-75
2022/07/30 07:24:01;;;;;;;7.00;6.50;;;23.60;99.90;;;;;;6153907;23;20169;-75
2022/07/30 07:26:28;;;;;;;7.18;6.68;;;24.20;99.90;;;;;;6154242;23;20227;-73
2022/07/30 07:28:53;;;;;;;7.28;6.70;;;24.50;99.90;;;;;;6153869;23;20160;-72
2022/07/30 07:31:19;;;;;;;6.97;6.38;;;24.50;99.90;;;;;;6154843;23;20166;-72
2022/07/30 07:33:45;;;;;;;7.07;6.53;;;24.40;99.90;;;;;;6154538;23;20177;-71
2022/07/30 07:36:11;;;;;;;6.95;6.45;;;24.30;99.90;;;;;;6154776;23;20149;-71
2022/07/30 07:38:37;;;;;;;7.50;6.90;;;24.30;99.90;;;;;;6153958;23;20166;-73
2022/07/30 07:41:04;;;;;;;6.60;6.20;;;24.40;99.90;;;;;;6155067;23;20157;-74
2022/07/30 07:43:30;;;;;;;7.18;6.68;;;24.40;99.90;;;;;;6154269;23;20185;-72
2022/07/30 07:45:55;;;;;;;7.03;6.53;;;24.30;99.90;;;;;;6154294;23;20133;-71
2022/07/30 07:48:21;;;;;;;6.97;6.43;;;24.30;99.90;;;;;;6154520;23;20208;-70
2022/07/30 07:50:46;;;;;;;6.72;6.22;;;24.40;99.90;;;;;;6127947;23;20617;-71
2022/07/30 07:53:12;;;;;;;7.35;6.85;;;24.50;99.90;;;;;;6154437;23;20559;-72
2022/07/30 07:55:39;;;;;;;7.05;6.55;;;24.90;99.90;;;;;;6153704;23;20176;-70
2022/07/30 07:58:04;;;;;;;6.60;6.10;;;25.00;99.90;;;;;;6128006;23;20177;-72
2022/07/30 08:00:30;;;;;;;7.03;6.50;;;25.10;99.90;;;;;;6153971;23;20614;-73
2022/07/30 08:02:56;;;;;;;6.63;6.07;;;25.00;99.90;;;;;;6153848;23;20185;-73
2022/07/30 08:05:22;;;;;;;6.13;5.72;;;24.90;99.90;;;;;;6154342;23;20153;-73
2022/07/30 08:07:48;;;;;;;5.68;5.28;;;24.80;99.90;;;;;;6154208;23;20153;-72
2022/07/30 08:10:14;;;;;;;5.32;4.93;;;25.00;99.90;;;;;;6153875;23;20154;-71
2022/07/30 08:12:41;;;;;;;5.70;5.30;;;25.00;99.90;;;;;;6153432;23;20169;-73
2022/07/30 08:15:08;;;;;;;5.53;5.10;;;25.20;99.90;;;;;;6153581;23;20516;-74
2022/07/30 08:17:41;;;;;;;5.07;4.68;;;25.40;99.90;;;;;;6128113;23;20157;-74
2022/07/30 08:20:08;;;;;;;4.95;4.65;;;25.50;99.90;;;;;;6153327;23;20138;-73
2022/07/30 08:22:34;;;;;;;5.93;5.43;;;25.40;99.90;;;;;;6153589;23;20185;-74
2022/07/30 08:24:59;;;;;;;5.32;5.03;;;25.60;99.90;;;;;;6153633;23;20493;-74
2022/07/30 08:27:26;;;;;;;4.97;4.57;;;25.50;99.90;;;;;;6153217;23;20605;-72
2022/07/30 08:29:52;;;;;;;5.30;5.00;;;25.80;99.90;;;;;;6150427;23;20184;-70
2022/07/30 08:32:17;;;;;;;5.22;4.80;;;26.00;99.90;;;;;;6153737;23;20164;-73
2022/07/30 08:34:43;;;;;;;4.75;4.35;;;26.30;99.90;;;;;;6152328;23;20145;-71
2022/07/30 08:37:09;;;;;;;4.35;4.05;;;26.60;99.90;;;;;;6126186;23;20161;-72
2022/07/30 08:39:34;;;;;;;4.32;3.70;;;26.80;99.90;;;;;;6153269;23;20177;-73
2022/07/30 08:42:02;;;;;;;3.42;3.22;;;26.90;99.90;;;;;;6153340;23;20173;-73
2022/07/30 08:44:28;;;;;;;3.47;3.28;;;26.90;99.90;;;;;;6153199;23;20149;-72
2022/07/30 08:46:56;;;;;;;3.83;3.63;;;26.90;99.90;;;;;;6153267;23;20149;-73
2022/07/30 08:49:22;;;;;;;5.43;3.00;;;26.70;99.90;;;;;;6153138;23;20145;-72
2022/07/30 08:51:49;;;;;;;3.58;3.38;;;26.60;99.90;;;;;;6154277;23;20179;-75
2022/07/30 08:54:17;;;;;;;3.33;3.13;;;26.40;99.70;;;;;;6153054;23;20177;-74
2022/07/30 08:56:43;;;;;;;3.25;3.05;;;26.00;99.90;;;;;;6152335;23;20162;-75
2022/07/30 08:59:09;;;;;;;3.42;3.22;;;25.90;99.90;;;;;;6154585;23;20630;-74
2022/07/30 09:01:34;;;;;;;2.95;2.85;;;25.80;99.90;;;;;;6153624;23;20150;-74
2022/07/30 09:04:00;;;;;;;3.78;3.58;;;25.90;99.90;;;;;;6153736;23;20205;-75
2022/07/30 09:06:26;;;;;;;3.13;2.92;;;26.00;99.30;;;;;;6153319;23;20162;-72
2022/07/30 09:08:52;;;;;;;3.67;3.38;;;25.90;99.90;;;;;;6153634;23;20164;-75
2022/07/30 09:11:18;;;;;;;4.15;3.75;;;25.90;99.90;;;;;;6153967;23;20228;-72
2022/07/30 09:13:44;;;;;;;4.38;3.45;;;26.10;99.90;;;;;;6154579;23;20634;-72
2022/07/30 09:16:23;;;;;;;3.45;3.25;;;26.30;99.70;;;;;;6152490;23;20149;-73
2022/07/30 09:18:51;;;;;;;3.15;2.95;;;26.30;98.50;;;;;;6154818;23;20585;-71
2022/07/30 09:21:23;;;;;;;3.40;3.20;;;26.20;97.90;;;;;;6154402;23;20149;-75
2022/07/30 09:24:21;;;;;;;3.60;3.40;;;26.00;98.10;;;;;;6152989;23;20537;-74
2022/07/30 09:26:58;;;;;;;3.88;3.30;;;26.10;97.60;;;;;;6102511;23;20188;-74
2022/07/30 09:29:27;;;;;;;3.28;3.08;;;26.10;98.40;;;;;;6151585;23;20133;-74
2022/07/30 09:32:04;;;;;;;2.92;2.80;;;26.20;98.00;;;;;;6153479;23;20157;-72
2022/07/30 09:34:35;;;;;;;4.13;3.35;;;26.70;96.20;;;;;;6153909;23;20169;-71
2022/07/30 09:37:03;;;;;;;3.50;2.80;;;28.40;93.50;;;;;;6153550;23;20168;-72
2022/07/30 09:39:36;;;;;;;15.10;3.13;;;30.10;89.40;;;;;;6154385;23;20204;-73
2022/07/30 09:42:15;;;;;;;3.53;3.00;;;31.80;79.00;;;;;;6127597;23;20181;-73
2022/07/30 09:44:40;;;;;;;2.72;2.50;;;32.70;74.20;;;;;;6154117;23;20137;-73
2022/07/30 09:47:06;;;;;;;2.88;2.60;;;33.60;69.10;;;;;;6153429;23;20173;-71
2022/07/30 09:49:32;;;;;;;2.72;2.53;;;34.00;64.50;;;;;;6153629;23;20643;-71
2022/07/30 09:51:58;;;;;;;2.53;2.42;;;33.90;65.80;;;;;;6154142;23;20624;-71
2022/07/30 09:54:43;;;;;;;3.30;3.03;;;34.40;62.80;;;;;;6128051;23;20299;-70
2022/07/30 09:57:09;;;;;;;2.60;2.40;;;34.80;61.30;;;;;;6154132;23;20137;-71
2022/07/30 09:59:34;;;;;;;2.70;2.50;;;35.50;59.10;;;;;;6153842;23;20180;-71
2022/07/30 10:02:00;;;;;;;2.60;2.50;;;35.60;58.60;;;;;;6153915;23;20219;-70
2022/07/30 10:04:31;;;;;;;2.85;2.75;;;36.30;57.50;;;;;;6153250;23;20226;-72
2022/07/30 10:06:59;;;;;;;3.10;3.00;;;35.60;56.90;;;;;;6127502;23;20159;-71
2022/07/30 10:09:33;;;;;;;2.95;2.75;;;34.90;58.60;;;;;;6154065;23;20156;-71
2022/07/30 10:12:01;;;;;;;2.67;2.58;;;34.80;57.50;;;;;;6152234;23;20161;-72
2022/07/30 10:14:32;;;;;;;2.67;2.47;;;34.00;58.90;;;;;;6153914;23;20169;-70
2022/07/30 10:16:59;;;;;;;3.47;3.15;;;33.60;59.80;;;;;;6154199;23;20224;-72
2022/07/30 10:19:24;;;;;;;2.92;2.83;;;32.90;60.20;;;;;;6128518;23;20502;-70
2022/07/30 10:21:52;;;;;;;2.92;2.72;;;31.70;62.80;;;;;;6155741;23;20267;-72
2022/07/30 10:24:18;;;;;;;2.63;2.38;;;30.70;64.40;;;;;;6155845;23;20165;-71
2022/07/30 10:26:49;;;;;;;3.08;2.90;;;31.20;64.20;;;;;;6155466;23;20199;-70
2022/07/30 10:29:19;;;;;;;2.78;2.67;;;32.80;60.30;;;;;;6155114;23;20133;-71
2022/07/30 10:31:49;;;;;;;2.47;2.28;;;33.90;58.60;;;;;;6155543;23;20140;-71
2022/07/30 10:34:17;;;;;;;3.47;2.65;;;35.00;57.90;;;;;;6155491;23;20514;-71
2022/07/30 10:36:47;;;;;;;2.58;2.47;;;36.30;55.50;;;;;;6155121;23;20536;-72
2022/07/30 10:39:17;;;;;;;2.70;2.60;;;37.10;53.70;;;;;;6129295;23;20616;-70
2022/07/30 10:41:46;;;;;;;2.60;2.40;;;38.00;52.10;;;;;;6155195;23;20141;-70
2022/07/30 10:44:11;;;;;;;2.45;2.35;;;39.00;50.00;;;;;;6154781;23;20165;-69
2022/07/30 10:47:01;;;;;;;2.20;2.10;;;40.20;47.30;;;;;;6155378;23;20149;-69
2022/07/30 10:49:27;;;;;;;2.03;1.92;;;40.00;46.60;;;;;;6154887;23;20578;-69
2022/07/30 10:51:56;;;;;;;3.00;2.28;;;40.30;44.70;;;;;;6155229;23;20256;-69
2022/07/30 10:54:37;;;;;;;2.00;1.90;;;39.60;45.60;;;;;;6154539;23;20179;-70
2022/07/30 10:57:20;;;;;;;1.92;1.90;;;38.60;45.70;;;;;;6155079;23;20583;-69
2022/07/30 10:59:48;;;;;;;1.80;1.80;;;39.60;45.80;;;;;;6154924;23;20141;-70
2022/07/30 11:02:15;;;;;;;1.90;1.80;;;40.20;45.10;;;;;;6154787;23;20180;-69
2022/07/30 11:04:41;;;;;;;2.00;1.90;;;40.60;43.20;;;;;;6155269;23;20203;-71
2022/07/30 11:07:22;;;;;;;2.13;2.03;;;40.10;44.00;;;;;;6129221;23;20153;-70
2022/07/30 11:10:28;;;;;;;2.00;1.90;;;39.60;44.70;;;;;;6129149;23;20153;-71
2022/07/30 11:12:54;;;;;;;1.85;1.70;;;39.50;44.70;;;;;;6154576;23;20183;-71
2022/07/30 11:15:21;;;;;;;1.67;1.60;;;40.00;44.30;;;;;;6155287;23;20540;-69
2022/07/30 11:17:59;;;;;;;1.67;1.52;;;40.20;43.00;;;;;;6155489;23;20153;-70
2022/07/30 11:20:25;;;;;;;1.58;1.55;;;39.00;43.40;;;;;;6155253;23;20152;-69
2022/07/30 11:22:52;;;;;;;1.70;1.60;;;37.60;45.60;;;;;;6154425;23;20311;-69
2022/07/30 11:25:21;;;;;;;2.47;1.85;;;37.40;46.30;;;;;;6155002;23;20489;-69
2022/07/30 11:27:49;;;;;;;1.85;1.75;;;38.00;46.10;;;;;;6154972;23;20148;-70
2022/07/30 11:30:14;;;;;;;2.20;2.10;;;39.10;43.90;;;;;;6153919;23;20152;-70
2022/07/30 11:32:45;;;;;;;2.10;2.00;;;38.20;44.20;;;;;;6154870;23;20173;-69
2022/07/30 11:35:20;;;;;;;1.90;1.80;;;37.20;45.50;;;;;;6154937;23;20137;-69
2022/07/30 11:38:08;;;;;;;2.05;1.95;;;35.90;46.80;;;;;;6155195;23;20141;-71
2022/07/30 11:40:54;;;;;;;2.00;1.90;;;36.60;46.60;;;;;;6155183;23;20148;-70
2022/07/30 11:43:21;;;;;;;1.75;1.65;;;38.00;45.60;;;;;;6118439;23;20196;-70
2022/07/30 11:45:49;;;;;;;1.70;1.70;;;38.90;44.40;;;;;;6128877;23;20231;-71
2022/07/30 11:48:17;;;;;;;2.05;1.70;;;39.70;43.50;;;;;;6152974;23;20153;-68
2022/07/30 11:50:44;;;;;;;2.00;1.80;;;38.60;43.80;;;;;;6154269;23;20155;-67
2022/07/30 11:53:17;;;;;;;2.38;1.70;;;36.40;45.90;;;;;;6154591;23;20172;-72
2022/07/30 11:55:49;;;;;;;1.90;1.80;;;34.50;49.60;;;;;;6155096;23;20220;-71
2022/07/30 11:58:30;;;;;;;1.50;1.50;;;34.20;49.30;;;;;;6154475;23;20227;-70
2022/07/30 12:01:00;;;;;;;1.52;1.52;;;33.80;50.20;;;;;;6154889;23;20531;-70
2022/07/30 12:03:27;;;;;;;1.77;1.67;;;34.70;49.80;;;;;;6153041;23;20192;-70
2022/07/30 12:05:53;;;;;;;1.95;1.85;;;35.70;48.50;;;;;;6128529;23;20204;-68
2022/07/30 12:08:19;;;;;;;1.50;1.50;;;35.40;49.00;;;;;;6154123;23;20188;-68
2022/07/30 12:10:55;;;;;;;1.92;1.83;;;34.70;48.90;;;;;;6154146;23;20149;-68
2022/07/30 12:13:21;;;;;;;1.77;1.67;;;34.30;49.80;;;;;;6155169;23;20168;-69
2022/07/30 12:15:50;;;;;;;1.85;1.75;;;33.40;51.10;;;;;;6154168;23;20211;-69
2022/07/30 12:18:27;;;;;;;2.03;1.88;;;32.50;52.50;;;;;;6154462;23;20235;-69
2022/07/30 12:20:58;;;;;;;1.80;1.73;;;32.20;53.60;;;;;;6154127;23;20157;-69
2022/07/30 12:23:24;;;;;;;1.70;1.60;;;32.90;52.10;;;;;;6153962;23;20204;-69
2022/07/30 12:25:50;;;;;;;1.67;1.58;;;32.40;51.70;;;;;;6154476;23;20150;-69
2022/07/30 12:28:25;;;;;;;1.95;1.70;;;31.90;53.10;;;;;;6154405;23;20223;-69
2022/07/30 12:30:51;;;;;;;1.70;1.60;;;32.80;53.20;;;;;;6154304;23;20161;-69
2022/07/30 12:33:19;;;;;;;1.48;1.38;;;34.30;49.80;;;;;;6153818;23;20255;-69
2022/07/30 12:35:53;;;;;;;1.55;1.45;;;36.10;46.30;;;;;;6154428;23;20160;-69
2022/07/30 12:38:20;;;;;;;1.50;1.50;;;37.20;46.20;;;;;;6154156;23;20152;-69
2022/07/30 12:41:05;;;;;;;1.58;1.52;;;37.60;44.20;;;;;;6153929;23;20153;-69
2022/07/30 12:43:51;;;;;;;1.50;1.50;;;36.30;46.10;;;;;;6154167;23;20188;-69